Abbotsford, Wisconsin
Current Conditions -  °F | °C
As of 3:55 PM on Thursday 27 Nov 2014 (Local Time) from KMDZ Reporting Station
Clear Clear  
Wind Chill: -2°   Ceiling: Unl
Heat Index:   Visibility: 10mi
Dew Point:   Wind: 7mph
Humidity: 65%   Direction: 260°W
Pressure: 30.34"   Gusts: NA
Location:  44.95°N, 90.32°W
Report Text: KMDZ 272155Z AUTO 26006KT 10SM CLR M13/M18 A3034 RMK AO2 T11271180
Loading
Personal Weather Stations






























Interactive Weather Map New forecast layout! Learn more

10-Day Weather Forecast

Advertisements
Track Severe Weather on mobile